createdAt,value
2022-10-16T00:00:07.639Z,20.83
2022-10-16T00:02:41.131Z,18.08
2022-10-16T00:05:08.478Z,18.08
2022-10-16T00:07:42.007Z,19.45
2022-10-16T00:10:09.383Z,20.63
2022-10-16T00:12:36.501Z,19.70
2022-10-16T00:15:09.891Z,15.95
2022-10-16T00:17:43.961Z,16.20
2022-10-16T00:20:18.014Z,15.95
2022-10-16T00:22:45.278Z,15.50
2022-10-16T00:25:12.544Z,16.23
2022-10-16T00:27:45.981Z,15.50
2022-10-16T00:30:13.308Z,15.77
2022-10-16T00:32:47.010Z,12.85
2022-10-16T00:35:14.205Z,11.57
2022-10-16T00:37:41.374Z,11.98
2022-10-16T00:40:15.092Z,13.70
2022-10-16T00:42:42.304Z,14.18
2022-10-16T00:45:10.417Z,13.45
2022-10-16T00:47:57.058Z,14.40
2022-10-16T00:50:39.911Z,13.55
2022-10-16T00:53:07.387Z,15.60
2022-10-16T00:55:42.519Z,15.15
2022-10-16T00:58:10.195Z,18.05
2022-10-16T01:00:37.313Z,17.15
2022-10-16T01:03:10.938Z,17.15
2022-10-16T01:05:46.832Z,17.45
2022-10-16T01:08:29.902Z,21.13
2022-10-16T01:11:10.396Z,21.27
2022-10-16T01:13:46.891Z,19.85
2022-10-16T01:16:41.124Z,19.40
2022-10-16T01:19:34.025Z,19.05
2022-10-16T01:22:02.262Z,16.77
2022-10-16T01:27:32.186Z,16.70
2022-10-16T01:30:10.918Z,18.48
2022-10-16T01:32:38.188Z,16.25
2022-10-16T01:35:20.936Z,18.27
2022-10-16T01:37:51.298Z,17.20
2022-10-16T01:40:19.748Z,16.35
2022-10-16T01:42:57.015Z,15.32
2022-10-16T01:45:30.917Z,17.60
2022-10-16T01:48:05.120Z,16.27
2022-10-16T01:50:39.905Z,15.63
2022-10-16T01:53:08.408Z,16.73
2022-10-16T01:55:43.911Z,16.83
2022-10-16T01:58:12.209Z,13.80
2022-10-16T02:00:48.026Z,17.83
2022-10-16T02:03:16.948Z,13.65
2022-10-16T02:06:08.966Z,16.85
2022-10-16T02:08:36.959Z,13.95
2022-10-16T02:11:04.201Z,17.60
2022-10-16T02:13:41.039Z,15.65
2022-10-16T02:16:15.400Z,16.75
2022-10-16T02:18:51.019Z,16.83
2022-10-16T02:21:18.213Z,14.40
2022-10-16T02:24:12.111Z,15.00
2022-10-16T02:26:44.610Z,14.68
2022-10-16T02:29:23.021Z,16.75
2022-10-16T02:31:52.182Z,15.45
2022-10-16T02:34:20.480Z,18.13
2022-10-16T02:36:56.019Z,18.98
2022-10-16T02:39:29.945Z,17.63
2022-10-16T02:42:04.033Z,15.57
2022-10-16T02:44:38.026Z,16.17
2022-10-16T02:49:44.109Z,16.83
2022-10-16T02:52:11.208Z,18.33
2022-10-16T02:54:45.016Z,17.60
2022-10-16T02:57:18.928Z,17.65
2022-10-16T02:59:53.047Z,14.73
2022-10-16T03:02:20.239Z,17.00
2022-10-16T03:04:54.055Z,18.33
2022-10-16T03:07:21.339Z,17.00
2022-10-16T03:09:55.140Z,19.05
2022-10-16T03:12:22.381Z,17.17
2022-10-16T03:14:49.518Z,15.75
2022-10-16T03:17:24.359Z,16.38
2022-10-16T03:19:51.721Z,16.55
2022-10-16T03:22:18.855Z,17.10
2022-10-16T03:24:53.026Z,16.23
2022-10-16T03:27:27.264Z,15.57
2022-10-16T03:30:01.044Z,15.98
2022-10-16T03:35:08.285Z,16.05
2022-10-16T03:37:35.574Z,15.43
2022-10-16T03:40:08.962Z,15.38
2022-10-16T03:42:36.389Z,15.38
2022-10-16T03:45:10.023Z,16.75
2022-10-16T03:47:37.350Z,14.05
2022-10-16T03:50:05.101Z,14.05
2022-10-16T03:52:40.273Z,14.38
2022-10-16T03:55:07.748Z,15.18
2022-10-16T03:57:37.179Z,13.43
2022-10-16T04:00:11.071Z,13.75
2022-10-16T04:02:42.111Z,12.43
2022-10-16T04:05:16.193Z,12.73
2022-10-16T04:07:43.433Z,13.00
2022-10-16T04:10:10.747Z,13.48
2022-10-16T04:12:45.139Z,13.95
2022-10-16T04:15:12.380Z,11.60
2022-10-16T04:17:53.103Z,14.13
2022-10-16T04:20:27.196Z,13.85
2022-10-16T04:23:01.103Z,12.38
2022-10-16T04:25:28.538Z,12.70
2022-10-16T04:27:55.799Z,13.38
2022-10-16T04:30:30.071Z,12.32
2022-10-16T04:32:57.341Z,12.88
2022-10-16T04:35:30.962Z,13.05
2022-10-16T04:38:01.147Z,14.40
2022-10-16T04:40:43.026Z,13.13
2022-10-16T04:43:10.490Z,11.27
2022-10-16T04:45:44.998Z,13.40
2022-10-16T04:48:12.406Z,10.52
2022-10-16T04:50:41.076Z,10.93
2022-10-16T04:53:15.127Z,11.15
2022-10-16T04:55:43.116Z,11.98
2022-10-16T04:58:17.287Z,10.88
2022-10-16T05:00:45.383Z,10.82
2022-10-16T05:03:12.616Z,10.38
2022-10-16T05:05:50.047Z,9.48
2022-10-16T05:08:17.939Z,12.00
2022-10-16T05:10:52.075Z,12.20
2022-10-16T05:13:19.288Z,10.93
2022-10-16T05:15:56.164Z,11.40
2022-10-16T05:18:30.107Z,13.80
2022-10-16T05:21:04.190Z,14.45
2022-10-16T05:23:31.758Z,11.00
2022-10-16T05:28:40.629Z,14.45
2022-10-16T05:31:08.180Z,13.93
2022-10-16T05:36:10.884Z,12.68
2022-10-16T05:38:38.507Z,15.45
2022-10-16T05:43:39.317Z,10.13
2022-10-16T05:46:14.140Z,13.52
2022-10-16T05:48:41.446Z,14.13
2022-10-16T05:51:10.640Z,14.38
2022-10-16T05:56:17.553Z,13.73
2022-10-16T06:01:20.325Z,11.05
2022-10-16T06:03:54.093Z,11.48
2022-10-16T06:06:23.960Z,13.05
2022-10-16T06:08:51.283Z,12.13
2022-10-16T06:11:26.143Z,10.95
2022-10-16T06:13:53.823Z,13.75
2022-10-16T06:16:28.453Z,13.35
2022-10-16T06:19:02.258Z,12.35
2022-10-16T06:21:37.095Z,13.27
2022-10-16T06:24:11.110Z,11.90
2022-10-16T06:26:39.663Z,13.15
2022-10-16T06:29:07.022Z,12.18
2022-10-16T06:31:41.094Z,12.85
2022-10-16T06:34:11.627Z,12.20
2022-10-16T06:36:46.125Z,11.73
2022-10-16T06:39:13.401Z,11.95
2022-10-16T06:41:40.576Z,11.70
2022-10-16T06:44:15.102Z,12.80
2022-10-16T06:46:42.398Z,13.50
2022-10-16T06:49:09.508Z,12.80
2022-10-16T06:51:44.108Z,15.15
2022-10-16T06:54:11.385Z,13.18
2022-10-16T06:56:45.308Z,13.40
2022-10-16T06:59:12.560Z,12.98
2022-10-16T07:01:39.692Z,12.20
2022-10-16T07:04:13.105Z,12.48
2022-10-16T07:06:40.245Z,15.05
2022-10-16T07:09:15.219Z,14.18
2022-10-16T07:11:42.447Z,14.10
2022-10-16T07:14:23.091Z,14.25
2022-10-16T07:16:57.053Z,15.50
2022-10-16T07:19:34.242Z,16.27
2022-10-16T07:22:08.003Z,16.42
2022-10-16T07:24:35.190Z,16.02
2022-10-16T07:27:02.407Z,16.90
2022-10-16T07:29:36.013Z,19.13
2022-10-16T07:32:03.666Z,17.88
2022-10-16T07:37:04.432Z,19.48
2022-10-16T07:39:31.552Z,17.35
2022-10-16T07:42:06.216Z,16.48
2022-10-16T07:44:33.467Z,16.45
2022-10-16T07:47:00.584Z,17.83
2022-10-16T07:49:34.095Z,14.43
2022-10-16T07:52:01.400Z,15.50
2022-10-16T07:54:35.060Z,14.93
2022-10-16T07:57:02.423Z,13.68
2022-10-16T07:59:29.669Z,15.20
2022-10-16T08:02:03.058Z,13.90
2022-10-16T08:04:30.311Z,14.68
2022-10-16T08:06:57.397Z,13.95
2022-10-16T08:09:31.028Z,13.73
2022-10-16T08:12:02.134Z,14.25
2022-10-16T08:14:44.427Z,11.77
2022-10-16T08:17:35.938Z,11.85
2022-10-16T08:20:10.050Z,10.65
2022-10-16T08:22:40.529Z,8.95
2022-10-16T08:25:07.751Z,9.60
2022-10-16T08:27:42.239Z,9.40
2022-10-16T08:30:09.816Z,9.00
2022-10-16T08:35:13.960Z,7.55
2022-10-16T08:37:41.543Z,6.80
2022-10-16T08:42:49.210Z,5.63
2022-10-16T08:45:27.257Z,5.53
2022-10-16T08:48:12.844Z,5.65
2022-10-16T08:50:47.178Z,5.88
2022-10-16T08:53:19.592Z,4.50
2022-10-16T08:56:00.109Z,5.00
2022-10-16T08:58:29.663Z,4.38
2022-10-16T09:01:05.238Z,3.75
2022-10-16T09:03:35.451Z,3.47
2022-10-16T09:06:02.694Z,4.20
2022-10-16T09:08:45.146Z,3.15
2022-10-16T09:11:23.084Z,3.78
2022-10-16T09:13:50.723Z,3.78
2022-10-16T09:18:57.211Z,3.47
2022-10-16T09:21:29.667Z,2.92
2022-10-16T09:24:07.381Z,3.00
2022-10-16T09:26:34.615Z,3.50
2022-10-16T09:29:01.969Z,3.17
2022-10-16T09:34:41.209Z,3.10
2022-10-16T09:37:14.139Z,2.90
2022-10-16T09:39:55.173Z,3.45
2022-10-16T09:42:24.531Z,3.35
2022-10-16T09:44:52.420Z,2.83
2022-10-16T09:47:26.616Z,3.35
2022-10-16T09:50:03.125Z,3.03
2022-10-16T09:52:37.157Z,3.13
2022-10-16T09:55:14.587Z,3.30
2022-10-16T09:58:01.282Z,4.00
2022-10-16T10:00:28.535Z,3.80
2022-10-16T10:02:56.261Z,3.33
2022-10-16T10:05:32.395Z,3.88
2022-10-16T10:08:07.366Z,3.25
2022-10-16T10:10:56.147Z,3.42
2022-10-16T10:13:31.147Z,3.90
2022-10-16T10:16:05.209Z,3.55
2022-10-16T10:18:40.410Z,3.70
2022-10-16T10:21:14.180Z,3.92
2022-10-16T10:23:41.405Z,3.97
2022-10-16T10:26:18.162Z,4.03
2022-10-16T10:29:03.678Z,4.20
2022-10-16T10:31:42.405Z,4.50
2022-10-16T10:34:18.709Z,4.28
2022-10-16T10:36:54.187Z,4.30
2022-10-16T10:39:31.540Z,4.32
2022-10-16T10:42:17.347Z,4.30
2022-10-16T10:45:10.146Z,3.88
2022-10-16T10:48:07.252Z,3.78
2022-10-16T10:50:34.331Z,4.40
2022-10-16T10:53:04.787Z,5.28
2022-10-16T10:55:44.171Z,4.57
2022-10-16T10:58:25.340Z,5.00
2022-10-16T11:01:14.175Z,5.13
2022-10-16T11:06:18.178Z,4.57
2022-10-16T11:08:49.912Z,4.60
2022-10-16T11:11:42.303Z,5.28
2022-10-16T11:14:23.642Z,4.40
2022-10-16T11:17:04.415Z,4.65
2022-10-16T11:19:48.165Z,4.65
2022-10-16T11:22:27.254Z,5.97
2022-10-16T11:25:14.579Z,5.80
2022-10-16T11:27:53.415Z,5.53
2022-10-16T11:30:23.481Z,4.00
2022-10-16T11:33:00.425Z,5.07
2022-10-16T11:35:47.774Z,4.75
2022-10-16T11:38:27.197Z,4.80
2022-10-16T11:40:56.039Z,5.25
2022-10-16T11:43:35.466Z,4.63
2022-10-16T11:46:15.027Z,3.95
2022-10-16T11:48:57.403Z,4.15
2022-10-16T11:51:42.634Z,3.47
2022-10-16T11:54:22.258Z,4.32
2022-10-16T11:56:51.443Z,3.50
2022-10-16T11:59:18.586Z,4.80
2022-10-16T12:01:55.201Z,4.15
2022-10-16T12:04:25.537Z,4.40
2022-10-16T12:07:11.242Z,4.85
2022-10-16T12:09:39.436Z,3.80
2022-10-16T12:12:14.297Z,4.47
2022-10-16T12:17:49.302Z,4.00
2022-10-16T12:20:26.640Z,3.80
2022-10-16T12:23:02.285Z,4.63
2022-10-16T12:25:33.972Z,5.05
2022-10-16T12:28:14.350Z,4.28
2022-10-16T12:30:42.564Z,4.68
2022-10-16T12:33:30.370Z,4.55
2022-10-16T12:35:58.282Z,2.80
2022-10-16T12:38:51.237Z,2.25
2022-10-16T12:41:31.724Z,2.20
2022-10-16T12:44:06.328Z,2.35
2022-10-16T12:46:34.126Z,2.25
2022-10-16T12:49:20.235Z,2.28
2022-10-16T12:51:47.438Z,2.00
2022-10-16T12:54:16.143Z,2.40
2022-10-16T12:56:51.363Z,2.20
2022-10-16T12:59:24.454Z,2.40
2022-10-16T13:02:17.322Z,2.03
2022-10-16T13:05:02.998Z,2.47
2022-10-16T13:07:49.358Z,2.15
2022-10-16T13:10:38.674Z,2.40
2022-10-16T13:13:12.503Z,2.05
2022-10-16T13:15:39.582Z,2.53
2022-10-16T13:18:31.367Z,2.78
2022-10-16T13:21:19.267Z,2.47
2022-10-16T13:23:53.457Z,3.10
2022-10-16T13:26:30.654Z,2.40
2022-10-16T13:29:08.249Z,2.95
2022-10-16T13:31:35.414Z,2.75
2022-10-16T13:34:02.826Z,2.58
2022-10-16T13:36:43.261Z,2.70
2022-10-16T13:39:15.073Z,3.17
2022-10-16T13:41:42.575Z,2.60
2022-10-16T13:44:21.257Z,3.53
2022-10-16T13:46:48.520Z,3.38
2022-10-16T13:49:16.880Z,3.13
2022-10-16T13:52:01.279Z,3.35
2022-10-16T13:54:38.157Z,3.38
2022-10-16T13:57:26.375Z,4.45
2022-10-16T14:02:36.053Z,3.95
2022-10-16T14:05:11.155Z,3.60
2022-10-16T14:07:38.622Z,3.38
2022-10-16T14:10:14.203Z,3.70
2022-10-16T14:12:41.481Z,3.45
2022-10-16T14:15:24.157Z,3.47
2022-10-16T14:18:06.234Z,3.60
2022-10-16T14:20:47.258Z,3.17
2022-10-16T14:23:27.435Z,4.35
2022-10-16T14:26:01.145Z,4.05
2022-10-16T14:28:29.223Z,4.90
2022-10-16T14:31:07.221Z,4.05
2022-10-16T14:33:35.621Z,4.45
2022-10-16T14:36:29.170Z,3.88
2022-10-16T14:39:04.474Z,4.78
2022-10-16T14:41:39.196Z,4.60
2022-10-16T14:44:06.606Z,4.35
2022-10-16T14:46:43.166Z,5.13
2022-10-16T14:49:10.600Z,4.53
2022-10-16T14:51:45.240Z,5.95
2022-10-16T14:54:12.983Z,4.95
2022-10-16T14:56:52.184Z,4.85
2022-10-16T14:59:21.210Z,5.90
2022-10-16T15:01:48.558Z,5.65
2022-10-16T15:04:23.262Z,4.88
2022-10-16T15:06:50.584Z,4.65
2022-10-16T15:09:24.316Z,4.68
2022-10-16T15:11:51.606Z,4.43
2022-10-16T15:14:18.725Z,5.43
2022-10-16T15:16:53.345Z,5.10
2022-10-16T15:19:27.376Z,5.45
2022-10-16T15:22:07.337Z,4.78
2022-10-16T15:24:41.161Z,5.45
2022-10-16T15:27:08.463Z,4.88
2022-10-16T15:29:35.767Z,5.78
2022-10-16T15:32:09.371Z,6.03
2022-10-16T15:34:36.636Z,5.10
2022-10-16T15:37:13.444Z,5.45
2022-10-16T15:39:41.541Z,5.75
2022-10-16T15:42:08.770Z,5.35
2022-10-16T15:44:42.509Z,6.05
2022-10-16T15:47:09.683Z,6.28
2022-10-16T15:49:43.427Z,4.93
2022-10-16T15:52:10.744Z,5.68
2022-10-16T15:54:37.872Z,5.22
2022-10-16T15:57:11.468Z,5.43
2022-10-16T15:59:38.660Z,5.00
2022-10-16T16:02:05.819Z,6.03
2022-10-16T16:04:44.000Z,6.07
2022-10-16T16:07:11.993Z,5.13
2022-10-16T16:09:45.278Z,4.40
2022-10-16T16:12:12.643Z,4.25
2022-10-16T16:14:46.447Z,3.78
2022-10-16T16:17:13.692Z,3.17
2022-10-16T16:19:54.484Z,4.03
2022-10-16T16:22:21.663Z,2.90
2022-10-16T16:24:48.794Z,2.72
2022-10-16T16:27:22.319Z,3.00
2022-10-16T16:29:49.582Z,2.70
2022-10-16T16:32:16.659Z,2.80
2022-10-16T16:34:50.270Z,2.92
2022-10-16T16:37:17.663Z,3.95
2022-10-16T16:39:51.319Z,3.13
2022-10-16T16:42:18.511Z,3.92
2022-10-16T16:44:45.605Z,3.45
2022-10-16T16:47:19.417Z,3.47
2022-10-16T16:49:47.425Z,3.35
2022-10-16T16:52:15.517Z,3.50
2022-10-16T16:54:49.420Z,4.75
2022-10-16T16:57:16.577Z,4.13
2022-10-16T16:59:43.666Z,2.75
2022-10-16T17:02:17.418Z,3.45
2022-10-16T17:04:51.209Z,3.25
2022-10-16T17:07:20.663Z,3.42
2022-10-16T17:09:57.294Z,2.45
2022-10-16T17:12:24.596Z,2.80
2022-10-16T17:14:52.199Z,2.28
2022-10-16T17:17:26.714Z,3.97
2022-10-16T17:20:00.307Z,2.70
2022-10-16T17:22:34.306Z,1.83
2022-10-16T17:25:04.006Z,2.97
2022-10-16T17:27:37.399Z,2.70
2022-10-16T17:30:05.990Z,3.35
2022-10-16T17:32:33.140Z,2.50
2022-10-16T17:35:07.430Z,3.47
2022-10-16T17:37:34.821Z,2.53
2022-10-16T17:40:02.006Z,2.80
2022-10-16T17:42:36.450Z,2.03
2022-10-16T17:45:03.698Z,2.95
2022-10-16T17:47:30.880Z,2.38
2022-10-16T17:50:05.479Z,2.40
2022-10-16T17:52:32.678Z,2.33
2022-10-16T17:54:59.905Z,2.42
2022-10-16T17:57:43.181Z,3.03
2022-10-16T18:00:11.122Z,3.35
2022-10-16T18:02:48.555Z,2.75
2022-10-16T18:05:15.727Z,2.30
2022-10-16T18:07:42.855Z,3.65
2022-10-16T18:10:20.162Z,2.95
2022-10-16T18:15:22.402Z,3.15
2022-10-16T18:17:49.495Z,3.28
2022-10-16T18:20:30.337Z,3.92
2022-10-16T18:23:04.292Z,4.75
2022-10-16T18:25:31.696Z,3.90
2022-10-16T18:27:59.235Z,3.78
2022-10-16T18:30:33.426Z,4.57
2022-10-16T18:33:01.034Z,4.00
2022-10-16T18:38:05.463Z,3.78
2022-10-16T18:40:32.806Z,3.50
2022-10-16T18:42:59.915Z,3.15
2022-10-16T18:45:33.317Z,3.58
2022-10-16T18:48:00.496Z,3.97
2022-10-16T18:50:34.503Z,3.65
2022-10-16T18:53:02.239Z,4.05
2022-10-16T18:55:30.956Z,3.90
2022-10-16T18:58:05.592Z,4.07
2022-10-16T19:00:32.825Z,4.30
2022-10-16T19:02:59.996Z,4.05
2022-10-16T19:05:33.552Z,4.88
2022-10-16T19:08:00.814Z,3.85
2022-10-16T19:10:35.403Z,5.45
2022-10-16T19:13:03.672Z,4.13
2022-10-16T19:15:41.705Z,4.28
2022-10-16T19:18:08.944Z,4.60
2022-10-16T19:20:48.349Z,4.47
2022-10-16T19:23:15.646Z,4.32
2022-10-16T19:25:42.788Z,4.20
2022-10-16T19:28:16.625Z,4.10
2022-10-16T19:30:46.253Z,3.70
2022-10-16T19:33:13.404Z,4.00
2022-10-16T19:35:47.348Z,3.47
2022-10-16T19:38:14.592Z,4.45
2022-10-16T19:40:48.454Z,3.05
2022-10-16T19:43:15.704Z,3.70
2022-10-16T19:45:49.538Z,3.08
2022-10-16T19:48:16.789Z,3.83
2022-10-16T19:50:47.154Z,3.60
2022-10-16T19:53:21.359Z,3.45
2022-10-16T19:55:49.614Z,3.13
2022-10-16T19:58:23.508Z,3.45
2022-10-16T20:00:50.906Z,3.78
2022-10-16T20:03:18.801Z,3.78
2022-10-16T20:06:03.479Z,3.90
2022-10-16T20:08:30.632Z,4.70
2022-10-16T20:11:04.444Z,4.22
2022-10-16T20:13:31.958Z,4.15
2022-10-16T20:16:05.585Z,4.10
2022-10-16T20:18:33.122Z,3.58
2022-10-16T20:23:41.073Z,4.75
2022-10-16T20:28:41.670Z,3.95
2022-10-16T20:31:11.983Z,3.85
2022-10-16T20:33:39.186Z,5.22
2022-10-16T20:36:17.433Z,3.95
2022-10-16T20:41:19.373Z,3.72
2022-10-16T20:43:47.648Z,3.75
2022-10-16T20:46:15.935Z,3.90
2022-10-16T20:48:53.451Z,4.40
2022-10-16T20:51:22.172Z,3.83
2022-10-16T20:53:59.486Z,4.13
2022-10-16T20:56:27.743Z,6.33
2022-10-16T20:58:55.072Z,5.07
2022-10-16T21:01:30.416Z,5.32
2022-10-16T21:03:59.217Z,5.25
2022-10-16T21:06:33.391Z,4.40
2022-10-16T21:09:03.147Z,4.53
2022-10-16T21:11:38.485Z,4.68
2022-10-16T21:14:06.968Z,4.35
2022-10-16T21:16:34.445Z,5.35
2022-10-16T21:19:08.393Z,4.47
2022-10-16T21:21:42.295Z,5.03
2022-10-16T21:24:16.755Z,4.15
2022-10-16T21:26:44.865Z,4.80
2022-10-16T21:29:12.414Z,4.40
2022-10-16T21:31:46.468Z,5.13
2022-10-16T21:34:14.140Z,4.43
2022-10-16T21:36:41.972Z,4.75
2022-10-16T21:39:18.452Z,4.35
2022-10-16T21:41:46.323Z,4.40
2022-10-16T21:44:13.743Z,5.57
2022-10-16T21:46:48.500Z,4.03
2022-10-16T21:49:17.512Z,4.85
2022-10-16T21:51:45.915Z,4.38
2022-10-16T21:54:24.445Z,4.22
2022-10-16T21:56:52.914Z,5.68
2022-10-16T21:59:20.357Z,4.53
2022-10-16T22:01:54.456Z,5.28
2022-10-16T22:04:21.630Z,4.30
2022-10-16T22:06:55.402Z,3.83
2022-10-16T22:09:22.696Z,5.05
2022-10-16T22:11:50.841Z,5.50
2022-10-16T22:14:25.371Z,4.50
2022-10-16T22:16:52.561Z,4.80
2022-10-16T22:19:34.484Z,4.45
2022-10-16T22:22:08.363Z,4.15
2022-10-16T22:24:42.611Z,5.10
2022-10-16T22:27:09.704Z,4.35
2022-10-16T22:29:36.923Z,4.25
2022-10-16T22:32:16.380Z,5.13
2022-10-16T22:34:43.555Z,5.35
2022-10-16T22:37:17.535Z,5.53
2022-10-16T22:39:44.736Z,5.13
2022-10-16T22:42:11.865Z,5.55
2022-10-16T22:44:48.510Z,4.20
2022-10-16T22:47:17.213Z,4.32
2022-10-16T22:49:44.305Z,5.18
2022-10-16T22:52:18.445Z,5.10
2022-10-16T22:54:45.610Z,4.93
2022-10-16T22:57:26.543Z,4.18
2022-10-16T22:59:53.816Z,4.45
2022-10-16T23:02:20.926Z,5.10
2022-10-16T23:04:54.474Z,4.75
2022-10-16T23:07:21.692Z,4.35
2022-10-16T23:09:55.635Z,4.78
2022-10-16T23:12:26.188Z,5.18
2022-10-16T23:14:53.651Z,5.57
2022-10-16T23:17:28.553Z,4.35
2022-10-16T23:20:15.301Z,4.93
2022-10-16T23:22:49.441Z,5.43
2022-10-16T23:25:16.782Z,4.72
2022-10-16T23:27:43.895Z,4.63
2022-10-16T23:30:17.642Z,4.63
2022-10-16T23:32:44.867Z,4.32
2022-10-16T23:35:11.962Z,4.72
2022-10-16T23:37:45.446Z,5.30
2022-10-16T23:40:12.811Z,4.70
2022-10-16T23:42:39.948Z,5.00
2022-10-16T23:45:14.399Z,4.50
2022-10-16T23:47:41.751Z,4.65
2022-10-16T23:50:16.441Z,5.25
2022-10-16T23:52:43.682Z,5.03
2022-10-16T23:55:10.821Z,4.32
2022-10-16T23:57:44.547Z,4.68
